Time;durP1;ratioP1;P1;durP2;ratioP2;P2;SDS_P1;SDS_P2;PMS_P1;PMS_P2;Temp;Humidity;BMP_temperature;BMP_pressure;BME280_temperature;BME280_humidity;BME280_pressure;Samples;Min_cycle;Max_cycle;Signal;HPM_P1;HPM_P2
2021/09/20 00:00:07;;;;;;;2.47;1.10;;;16.40;1.00;;;;;;5048557;28;20037;-81
2021/09/20 00:02:33;;;;;;;5.07;1.05;;;16.40;1.00;;;;;;5050262;28;20080;-81
2021/09/20 00:04:58;;;;;;;3.72;1.00;;;16.40;1.00;;;;;;5054873;28;20042;-81
2021/09/20 00:07:24;;;;;;;2.17;1.20;;;16.40;1.00;;;;;;5051872;28;20032;-81
2021/09/20 00:09:50;;;;;;;2.63;1.15;;;16.40;1.00;;;;;;5052975;28;20029;-81
2021/09/20 00:12:15;;;;;;;2.75;1.10;;;16.50;1.00;;;;;;5053281;28;20543;-80
2021/09/20 00:14:41;;;;;;;2.05;1.00;;;16.40;1.00;;;;;;5053277;28;20059;-80
2021/09/20 00:17:07;;;;;;;2.08;1.23;;;16.40;1.00;;;;;;5053700;28;20503;-81
2021/09/20 00:19:32;;;;;;;1.58;1.20;;;16.40;1.00;;;;;;5053690;28;20044;-80
2021/09/20 00:21:58;;;;;;;3.35;1.48;;;16.40;1.00;;;;;;5052826;28;20029;-81
2021/09/20 00:24:23;;;;;;;4.15;1.20;;;16.40;1.00;;;;;;5052572;28;20025;-80
2021/09/20 00:26:49;;;;;;;2.15;1.20;;;16.40;1.00;;;;;;5052609;28;20035;-80
2021/09/20 00:29:15;;;;;;;2.53;0.95;;;16.40;1.00;;;;;;5052972;28;20028;-80
2021/09/20 00:31:40;;;;;;;3.83;1.35;;;16.30;1.00;;;;;;5052393;28;20389;-81
2021/09/20 00:34:06;;;;;;;3.53;1.27;;;16.30;1.00;;;;;;5051945;28;20037;-81
2021/09/20 00:36:32;;;;;;;3.15;1.20;;;16.30;1.00;;;;;;5052376;28;20024;-81
2021/09/20 00:38:57;;;;;;;5.18;1.10;;;16.30;1.00;;;;;;5052496;28;20044;-81
2021/09/20 00:41:23;;;;;;;6.35;1.38;;;16.40;1.00;;;;;;5052838;28;20459;-80
2021/09/20 00:43:49;;;;;;;3.42;1.20;;;16.30;1.00;;;;;;5054403;28;20032;-80
2021/09/20 00:46:15;;;;;;;5.75;1.27;;;16.20;1.00;;;;;;5051972;28;20100;-81
2021/09/20 00:48:41;;;;;;;5.45;1.63;;;16.30;1.00;;;;;;5052218;28;20083;-81
2021/09/20 00:51:07;;;;;;;4.72;1.10;;;16.20;1.00;;;;;;5053187;28;20025;-80
2021/09/20 00:53:32;;;;;;;2.45;1.27;;;16.20;1.00;;;;;;5051961;28;20401;-80
2021/09/20 00:56:00;;;;;;;5.13;1.58;;;16.20;1.00;;;;;;5054290;28;20079;-80
2021/09/20 00:58:26;;;;;;;3.63;1.30;;;16.10;1.00;;;;;;5052335;28;20123;-80
2021/09/20 01:00:51;;;;;;;2.65;1.23;;;16.00;1.00;;;;;;5052927;28;20101;-80
2021/09/20 01:03:17;;;;;;;2.90;1.30;;;16.00;1.00;;;;;;5051746;28;20052;-80
2021/09/20 01:05:43;;;;;;;2.10;1.27;;;16.00;1.00;;;;;;5052134;28;20515;-80
2021/09/20 01:08:09;;;;;;;1.27;1.17;;;16.00;1.00;;;;;;5052667;28;20156;-80
2021/09/20 01:10:34;;;;;;;3.08;1.20;;;16.00;1.00;;;;;;5052010;28;20021;-80
2021/09/20 01:13:00;;;;;;;7.70;1.27;;;16.10;1.00;;;;;;5051584;28;20115;-80
2021/09/20 01:15:26;;;;;;;3.63;1.30;;;16.10;1.00;;;;;;5052700;28;20044;-80
2021/09/20 01:17:52;;;;;;;2.78;1.30;;;16.00;1.00;;;;;;5051402;28;20020;-80
2021/09/20 01:20:17;;;;;;;4.50;1.10;;;16.10;1.00;;;;;;5051826;28;20542;-80
2021/09/20 01:22:48;;;;;;;1.15;1.05;;;16.10;1.00;;;;;;5053677;28;20590;-80
2021/09/20 01:25:14;;;;;;;2.88;1.25;;;16.10;1.00;;;;;;5051667;28;20037;-80
2021/09/20 01:27:39;;;;;;;4.03;1.20;;;16.10;1.00;;;;;;5051095;28;20029;-80
2021/09/20 01:30:06;;;;;;;1.20;1.10;;;16.10;1.00;;;;;;5051370;28;20029;-80
2021/09/20 01:32:32;;;;;;;2.53;1.20;;;16.10;1.00;;;;;;5051548;28;20037;-80
2021/09/20 01:34:57;;;;;;;2.67;1.10;;;16.10;1.00;;;;;;5053358;28;20416;-80
2021/09/20 01:37:23;;;;;;;1.25;1.15;;;16.10;1.00;;;;;;5051014;28;20159;-80
2021/09/20 01:39:49;;;;;;;1.20;1.05;;;16.10;1.00;;;;;;5051634;28;20021;-80
2021/09/20 01:42:14;;;;;;;3.13;1.27;;;16.10;1.00;;;;;;5051106;28;20618;-80
2021/09/20 01:44:40;;;;;;;2.13;1.20;;;16.10;1.00;;;;;;5051114;28;20032;-81
2021/09/20 01:47:05;;;;;;;2.28;1.33;;;16.10;1.00;;;;;;5051919;28;20100;-80
2021/09/20 01:49:31;;;;;;;4.47;1.20;;;16.00;1.00;;;;;;5050594;28;20035;-80
2021/09/20 01:51:57;;;;;;;2.95;1.08;;;15.90;1.00;;;;;;5053152;28;20102;-81
2021/09/20 01:54:24;;;;;;;1.48;0.90;;;15.90;1.00;;;;;;5050832;28;20041;-80
2021/09/20 01:56:50;;;;;;;2.03;1.00;;;15.90;1.00;;;;;;5050789;28;20057;-80
2021/09/20 01:59:16;;;;;;;2.45;1.02;;;15.90;1.00;;;;;;5050890;28;20037;-80
2021/09/20 02:01:42;;;;;;;1.25;0.90;;;16.00;1.00;;;;;;5052471;28;20039;-80
2021/09/20 02:04:07;;;;;;;3.58;1.00;;;16.00;1.00;;;;;;5050711;28;20108;-80
2021/09/20 02:06:33;;;;;;;1.92;0.98;;;15.80;1.00;;;;;;5050718;28;20032;-80
2021/09/20 02:08:58;;;;;;;3.97;1.08;;;15.70;1.00;;;;;;5051045;28;20029;-80
2021/09/20 02:11:25;;;;;;;2.45;0.93;;;15.70;1.00;;;;;;5050549;28;20044;-81
2021/09/20 02:13:52;;;;;;;3.03;0.93;;;15.80;1.00;;;;;;5052435;28;20041;-80
2021/09/20 02:16:18;;;;;;;1.70;0.90;;;15.80;1.00;;;;;;5050652;28;20385;-81
2021/09/20 02:18:44;;;;;;;3.63;0.90;;;15.80;1.00;;;;;;5050651;28;20031;-80
2021/09/20 02:21:11;;;;;;;3.25;0.90;;;15.80;1.00;;;;;;5050362;28;20172;-80
2021/09/20 02:23:37;;;;;;;4.93;0.90;;;15.80;1.00;;;;;;5050349;28;20553;-80
2021/09/20 02:26:04;;;;;;;2.15;0.90;;;15.80;1.00;;;;;;5051453;28;20092;-80
2021/09/20 02:28:30;;;;;;;1.35;0.65;;;15.90;1.00;;;;;;5049785;28;20025;-80
2021/09/20 02:30:57;;;;;;;3.15;0.80;;;15.80;1.00;;;;;;5049963;28;20025;-80
2021/09/20 02:33:23;;;;;;;1.75;0.60;;;15.70;1.00;;;;;;5049974;28;20508;-80
2021/09/20 02:35:49;;;;;;;1.42;0.60;;;15.80;1.00;;;;;;5050200;28;20021;-80
2021/09/20 02:38:14;;;;;;;1.48;0.50;;;15.80;1.00;;;;;;5050620;28;20055;-80
2021/09/20 02:40:40;;;;;;;2.17;0.60;;;15.70;1.00;;;;;;5050269;28;20111;-80
2021/09/20 02:43:07;;;;;;;1.13;0.98;;;15.70;1.00;;;;;;5049892;28;20040;-80
2021/09/20 02:45:32;;;;;;;1.25;0.80;;;15.70;1.00;;;;;;5049395;28;20088;-80
2021/09/20 02:47:58;;;;;;;1.60;0.70;;;15.70;1.00;;;;;;5049927;28;20033;-80
2021/09/20 02:50:24;;;;;;;1.23;0.70;;;15.70;1.00;;;;;;5050188;28;20025;-80
2021/09/20 02:52:49;;;;;;;1.92;0.60;;;15.70;1.00;;;;;;5051971;28;20033;-80
2021/09/20 02:55:16;;;;;;;1.38;0.60;;;15.70;1.00;;;;;;5049779;28;20033;-80
2021/09/20 02:57:42;;;;;;;2.55;0.77;;;15.70;1.00;;;;;;5049924;28;20091;-80
2021/09/20 03:00:10;;;;;;;1.52;0.70;;;15.70;1.00;;;;;;5049195;28;20061;-80
2021/09/20 03:02:36;;;;;;;1.15;0.50;;;15.70;1.00;;;;;;5050214;28;20084;-80
2021/09/20 03:05:03;;;;;;;2.72;0.85;;;15.70;1.00;;;;;;5051416;28;20021;-80
2021/09/20 03:07:28;;;;;;;2.45;0.70;;;15.70;1.00;;;;;;5048997;28;20082;-80
2021/09/20 03:09:54;;;;;;;1.48;0.60;;;15.60;1.00;;;;;;5049464;28;20029;-80
2021/09/20 03:12:19;;;;;;;3.42;0.93;;;15.60;1.00;;;;;;5049477;28;20110;-80
2021/09/20 03:14:45;;;;;;;1.00;0.50;;;15.70;1.00;;;;;;5049234;28;20112;-80
2021/09/20 03:17:11;;;;;;;3.15;0.60;;;15.70;1.00;;;;;;5050358;28;20021;-80
2021/09/20 03:19:36;;;;;;;1.23;0.70;;;15.70;1.00;;;;;;5050898;28;20107;-80
2021/09/20 03:22:02;;;;;;;0.93;0.60;;;15.60;1.00;;;;;;5050105;28;20565;-80
2021/09/20 03:24:28;;;;;;;2.15;1.00;;;15.60;1.00;;;;;;5049941;28;20082;-81
2021/09/20 03:26:54;;;;;;;1.05;0.68;;;15.60;1.00;;;;;;5049352;28;20025;-80
2021/09/20 03:29:20;;;;;;;1.05;0.73;;;15.70;1.00;;;;;;5049004;28;20037;-81
2021/09/20 03:31:47;;;;;;;1.38;0.70;;;15.70;1.00;;;;;;5051728;28;20017;-80
2021/09/20 03:34:12;;;;;;;1.25;0.60;;;15.70;1.00;;;;;;5050450;28;20045;-80
2021/09/20 03:36:38;;;;;;;2.00;0.63;;;15.70;1.00;;;;;;5049630;28;20536;-80
2021/09/20 03:39:03;;;;;;;0.95;0.70;;;15.60;1.00;;;;;;5055740;28;20443;-80
2021/09/20 03:41:29;;;;;;;4.35;0.82;;;15.60;1.00;;;;;;5056407;28;20018;-80
2021/09/20 03:43:55;;;;;;;2.08;0.77;;;15.50;1.00;;;;;;5057681;28;20392;-80
2021/09/20 03:46:21;;;;;;;0.90;0.80;;;15.60;1.00;;;;;;5054490;28;20029;-80
2021/09/20 03:48:47;;;;;;;1.20;0.63;;;15.60;1.00;;;;;;5055905;28;20102;-81
2021/09/20 03:51:12;;;;;;;1.85;0.80;;;15.60;1.00;;;;;;5055388;28;20040;-80
2021/09/20 03:53:38;;;;;;;1.98;0.82;;;15.70;1.00;;;;;;5055713;28;20035;-80
2021/09/20 03:56:04;;;;;;;1.42;0.95;;;15.70;1.00;;;;;;5057240;28;20075;-80
2021/09/20 03:58:30;;;;;;;1.73;1.00;;;15.60;1.00;;;;;;5056084;28;20078;-80
2021/09/20 04:00:56;;;;;;;3.85;1.30;;;15.60;1.00;;;;;;5056080;28;20025;-80
2021/09/20 04:03:22;;;;;;;1.25;1.15;;;15.60;1.00;;;;;;5055921;28;20021;-80
2021/09/20 04:05:47;;;;;;;1.70;1.45;;;15.50;1.00;;;;;;5055822;28;20036;-80
2021/09/20 04:08:15;;;;;;;2.15;1.30;;;15.50;1.00;;;;;;5056123;28;20048;-80
2021/09/20 04:10:42;;;;;;;2.67;1.00;;;15.50;1.00;;;;;;5055968;28;20021;-80
2021/09/20 04:13:08;;;;;;;4.05;1.75;;;15.40;1.00;;;;;;5055216;28;20041;-80
2021/09/20 04:15:35;;;;;;;1.48;1.10;;;15.40;1.00;;;;;;5053976;28;20037;-80
2021/09/20 04:18:01;;;;;;;2.03;1.17;;;15.30;1.00;;;;;;5055743;28;20052;-80
2021/09/20 04:20:27;;;;;;;3.33;1.33;;;15.40;1.00;;;;;;5055559;28;20501;-80
2021/09/20 04:22:52;;;;;;;1.30;1.20;;;15.40;1.00;;;;;;5057719;28;20033;-80
2021/09/20 04:25:19;;;;;;;2.40;1.13;;;15.30;1.00;;;;;;5054592;28;20033;-80
2021/09/20 04:27:44;;;;;;;1.75;1.10;;;15.20;1.00;;;;;;5055276;28;20480;-80
2021/09/20 04:30:10;;;;;;;2.17;1.20;;;15.30;1.00;;;;;;5055392;28;20049;-80
2021/09/20 04:32:36;;;;;;;2.05;1.15;;;15.20;1.00;;;;;;5055912;28;20029;-80
2021/09/20 04:35:02;;;;;;;2.15;1.40;;;15.20;1.00;;;;;;5057519;28;20115;-80
2021/09/20 04:37:28;;;;;;;1.83;1.48;;;15.20;1.00;;;;;;5055688;28;20071;-80
2021/09/20 04:39:53;;;;;;;4.03;1.40;;;15.30;1.00;;;;;;5055727;28;20029;-80
2021/09/20 04:42:19;;;;;;;3.08;1.50;;;15.30;1.00;;;;;;5055203;28;20039;-80
2021/09/20 04:44:44;;;;;;;1.33;1.20;;;15.30;1.00;;;;;;5055400;28;20032;-80
2021/09/20 04:47:10;;;;;;;1.92;1.10;;;15.20;1.00;;;;;;5056299;28;20025;-80
2021/09/20 04:49:36;;;;;;;2.30;1.55;;;15.30;1.00;;;;;;5053694;28;20037;-81
2021/09/20 04:52:02;;;;;;;1.50;1.40;;;15.40;1.00;;;;;;5051584;28;20020;-80
2021/09/20 04:54:27;;;;;;;4.13;1.63;;;15.40;1.00;;;;;;5051467;28;20033;-80
2021/09/20 04:56:53;;;;;;;2.30;1.55;;;15.40;1.00;;;;;;5052703;28;20032;-81
2021/09/20 04:59:18;;;;;;;4.70;1.80;;;15.40;1.00;;;;;;5051989;28;20052;-81
2021/09/20 05:01:44;;;;;;;3.53;1.75;;;15.40;1.00;;;;;;5054107;28;20028;-80
2021/09/20 05:04:10;;;;;;;1.83;1.55;;;15.40;1.00;;;;;;5051105;28;20090;-80
2021/09/20 05:06:36;;;;;;;3.10;1.80;;;15.30;1.00;;;;;;5051923;28;20032;-81
2021/09/20 05:09:03;;;;;;;2.63;1.55;;;15.30;1.00;;;;;;5051481;28;20035;-80
2021/09/20 05:11:29;;;;;;;4.63;1.50;;;15.40;1.00;;;;;;5035604;28;20504;-80
2021/09/20 05:13:55;;;;;;;3.70;1.63;;;15.40;1.00;;;;;;5053848;28;20064;-81
2021/09/20 05:16:21;;;;;;;2.38;1.30;;;15.40;1.00;;;;;;5051835;28;20025;-80
2021/09/20 05:18:46;;;;;;;2.33;1.60;;;15.50;1.00;;;;;;5051613;28;20024;-80
2021/09/20 05:21:12;;;;;;;1.60;1.50;;;15.50;1.00;;;;;;5033976;28;20106;-80
2021/09/20 05:23:38;;;;;;;3.25;1.50;;;15.50;1.00;;;;;;5051169;28;20025;-81
2021/09/20 05:26:03;;;;;;;2.70;1.58;;;15.60;1.00;;;;;;5052178;28;20021;-80
2021/09/20 05:28:29;;;;;;;2.75;1.70;;;15.50;1.00;;;;;;5050891;28;20075;-80
2021/09/20 05:30:55;;;;;;;2.78;1.50;;;15.50;1.00;;;;;;5051039;28;20025;-80
2021/09/20 05:33:20;;;;;;;1.98;1.33;;;15.40;1.00;;;;;;5051148;28;20504;-79
2021/09/20 05:35:46;;;;;;;2.47;1.42;;;15.40;1.00;;;;;;5051942;28;20118;-79
2021/09/20 05:38:14;;;;;;;1.30;1.20;;;15.50;1.00;;;;;;5052397;28;20025;-79
2021/09/20 05:40:40;;;;;;;1.63;1.05;;;15.40;1.00;;;;;;5053352;28;20401;-79
2021/09/20 05:43:06;;;;;;;1.60;1.33;;;15.40;1.00;;;;;;5049457;28;20047;-79
2021/09/20 05:45:32;;;;;;;2.38;1.38;;;15.40;1.00;;;;;;5051952;28;20538;-79
2021/09/20 05:47:59;;;;;;;3.42;2.30;;;15.50;1.00;;;;;;5051492;28;20053;-79
2021/09/20 05:50:26;;;;;;;2.95;1.98;;;15.50;1.00;;;;;;5051124;28;20381;-80
2021/09/20 05:52:52;;;;;;;5.30;1.50;;;15.60;1.00;;;;;;5052528;28;20037;-80
2021/09/20 05:55:18;;;;;;;2.65;1.55;;;15.60;1.00;;;;;;5051544;28;20124;-81
2021/09/20 05:57:44;;;;;;;2.55;1.38;;;15.60;1.00;;;;;;5050293;28;20048;-81
2021/09/20 06:00:11;;;;;;;5.32;1.70;;;15.70;1.00;;;;;;5050756;28;20497;-81
2021/09/20 06:02:37;;;;;;;2.47;1.52;;;15.60;1.00;;;;;;5050841;28;20025;-81
2021/09/20 06:05:03;;;;;;;3.40;1.50;;;15.60;1.00;;;;;;5052079;28;20331;-81
2021/09/20 06:07:28;;;;;;;3.28;1.67;;;15.70;1.00;;;;;;5050844;28;20074;-82
2021/09/20 06:09:54;;;;;;;2.83;1.33;;;15.80;1.00;;;;;;5050883;28;20025;-82
2021/09/20 06:12:20;;;;;;;4.70;1.40;;;15.80;1.00;;;;;;5050323;28;20396;-82
2021/09/20 06:14:46;;;;;;;2.63;1.63;;;15.80;1.00;;;;;;5050229;28;20083;-81
2021/09/20 06:17:11;;;;;;;1.75;1.40;;;15.80;1.00;;;;;;5036841;28;20060;-80
2021/09/20 06:19:37;;;;;;;1.60;1.50;;;15.80;1.00;;;;;;5037801;28;20045;-81
2021/09/20 06:22:03;;;;;;;2.67;1.25;;;15.80;1.00;;;;;;5044211;28;20464;-81
2021/09/20 06:24:29;;;;;;;2.72;1.75;;;15.80;1.00;;;;;;5048604;28;20033;-81
2021/09/20 06:26:54;;;;;;;4.78;1.80;;;15.80;1.00;;;;;;5048459;28;20033;-81
2021/09/20 06:29:20;;;;;;;3.75;2.00;;;15.80;1.00;;;;;;5049808;28;20063;-81
2021/09/20 06:31:46;;;;;;;1.83;1.60;;;15.90;1.00;;;;;;5040089;28;20021;-81
2021/09/20 06:34:12;;;;;;;1.85;1.50;;;15.90;1.00;;;;;;5041657;28;20528;-79
2021/09/20 06:36:39;;;;;;;1.65;1.30;;;16.00;1.00;;;;;;5041165;28;20025;-79
2021/09/20 06:39:06;;;;;;;3.97;1.40;;;16.00;1.00;;;;;;5038925;28;20534;-79
2021/09/20 06:41:32;;;;;;;2.78;1.33;;;16.10;1.00;;;;;;5049122;28;20512;-79
2021/09/20 06:43:58;;;;;;;1.40;1.30;;;16.10;1.00;;;;;;5048196;28;20029;-79
2021/09/20 06:46:25;;;;;;;1.60;1.50;;;16.20;1.00;;;;;;5049012;28;20032;-79
2021/09/20 06:48:50;;;;;;;2.00;1.70;;;16.10;1.00;;;;;;5046734;28;20028;-80
2021/09/20 06:51:16;;;;;;;2.22;1.55;;;16.20;1.00;;;;;;5048617;28;20452;-79
2021/09/20 06:53:42;;;;;;;2.17;1.70;;;16.20;1.00;;;;;;5049315;28;20420;-79
2021/09/20 06:56:07;;;;;;;4.72;2.10;;;16.10;1.00;;;;;;5050400;28;20444;-78
2021/09/20 06:58:35;;;;;;;3.17;1.95;;;16.20;1.00;;;;;;5044156;28;20041;-79
2021/09/20 07:01:00;;;;;;;3.97;1.73;;;16.20;1.00;;;;;;5047167;28;20455;-79
2021/09/20 07:03:26;;;;;;;2.20;1.70;;;16.30;1.00;;;;;;5049346;28;20112;-78
2021/09/20 07:05:51;;;;;;;1.50;1.40;;;16.40;1.00;;;;;;5048621;28;20504;-79
2021/09/20 07:08:17;;;;;;;3.63;1.73;;;16.40;1.00;;;;;;5049427;28;20036;-79
2021/09/20 07:10:43;;;;;;;3.30;1.80;;;16.30;1.00;;;;;;5050649;28;20392;-79
2021/09/20 07:13:09;;;;;;;1.77;1.50;;;16.30;1.00;;;;;;5048694;28;20102;-78
2021/09/20 07:15:36;;;;;;;2.05;1.60;;;16.30;1.00;;;;;;5048223;28;20118;-79
2021/09/20 07:18:03;;;;;;;2.63;1.48;;;16.30;1.00;;;;;;5048525;28;20028;-78
2021/09/20 07:20:29;;;;;;;2.08;1.77;;;16.40;1.00;;;;;;5030489;28;20030;-78
2021/09/20 07:22:55;;;;;;;2.75;1.90;;;16.40;1.00;;;;;;5051237;28;20043;-78
2021/09/20 07:25:20;;;;;;;2.95;1.85;;;16.30;1.00;;;;;;5048328;28;20404;-79
2021/09/20 07:27:46;;;;;;;3.97;2.80;;;16.10;1.00;;;;;;5048724;28;20025;-78
2021/09/20 07:30:17;;;;;;;2.22;2.00;;;16.30;1.00;;;;;;5048904;28;20016;-84
2021/09/20 07:32:44;;;;;;;3.35;2.65;;;16.20;1.00;;;;;;5048613;28;20032;-76
2021/09/20 07:35:11;;;;;;;2.88;2.10;;;16.20;1.00;;;;;;5031745;28;20496;-77
2021/09/20 07:37:37;;;;;;;3.25;2.28;;;16.20;1.00;;;;;;5049708;28;20449;-89
2021/09/20 07:40:03;;;;;;;7.63;6.68;;;16.30;1.00;;;;;;5047344;28;20088;-83
2021/09/20 07:42:29;;;;;;;18.02;15.55;;;16.50;1.00;;;;;;5048143;28;20048;-78
2021/09/20 07:44:54;;;;;;;11.95;8.50;;;16.50;1.00;;;;;;5048554;28;20025;-76
2021/09/20 07:47:20;;;;;;;6.65;6.05;;;16.60;1.00;;;;;;5049191;28;20568;-77
2021/09/20 07:49:46;;;;;;;27.83;25.13;;;16.80;1.00;;;;;;5049979;28;20488;-78
2021/09/20 07:52:11;;;;;;;20.60;18.60;;;16.60;1.00;;;;;;5048098;28;20142;-78
2021/09/20 07:54:38;;;;;;;11.75;10.75;;;16.40;1.00;;;;;;5047993;28;20525;-78
2021/09/20 07:57:03;;;;;;;8.68;7.78;;;16.60;1.00;;;;;;5048290;28;20108;-78
2021/09/20 07:59:29;;;;;;;11.93;10.80;;;16.60;1.00;;;;;;5048081;28;20124;-78
2021/09/20 08:01:55;;;;;;;6.75;6.15;;;16.70;1.00;;;;;;5050060;28;20032;-78
2021/09/20 08:04:20;;;;;;;5.93;5.43;;;16.70;1.00;;;;;;5048262;28;20032;-86
2021/09/20 08:06:46;;;;;;;3.83;2.92;;;16.70;1.00;;;;;;5047561;28;20076;-80
2021/09/20 08:09:11;;;;;;;4.03;3.63;;;16.70;1.00;;;;;;5047589;28;20029;-80
2021/09/20 08:11:37;;;;;;;5.38;3.50;;;17.00;1.00;;;;;;5048719;28;20029;-79
2021/09/20 08:14:03;;;;;;;4.03;3.53;;;17.10;1.00;;;;;;5049644;28;20056;-81
2021/09/20 08:16:29;;;;;;;4.38;3.92;;;17.10;1.00;;;;;;5047325;28;20045;-79
2021/09/20 08:18:55;;;;;;;4.95;3.90;;;17.20;1.00;;;;;;5046431;28;20091;-80
2021/09/20 08:21:21;;;;;;;5.55;3.97;;;17.10;1.00;;;;;;5047821;28;20028;-80
2021/09/20 08:23:46;;;;;;;3.00;2.63;;;17.30;1.00;;;;;;5047641;28;20037;-80
2021/09/20 08:26:12;;;;;;;4.53;4.13;;;17.20;1.00;;;;;;5052527;28;20045;-80
2021/09/20 08:28:37;;;;;;;3.60;3.30;;;17.10;1.00;;;;;;5053359;28;20041;-81
2021/09/20 08:31:03;;;;;;;3.47;2.90;;;17.20;1.00;;;;;;5051769;28;20029;-80
2021/09/20 08:33:29;;;;;;;3.92;3.50;;;17.00;1.00;;;;;;5050982;28;20037;-80
2021/09/20 08:35:55;;;;;;;4.18;2.95;;;16.90;1.00;;;;;;5051751;28;20021;-79
2021/09/20 08:38:21;;;;;;;4.18;2.42;;;17.00;1.00;;;;;;5050598;28;20040;-79
2021/09/20 08:40:46;;;;;;;3.13;2.88;;;17.00;1.00;;;;;;5053427;28;20055;-80
2021/09/20 08:43:12;;;;;;;3.38;2.83;;;16.80;1.00;;;;;;5051554;28;20051;-79
2021/09/20 08:45:38;;;;;;;2.58;2.38;;;16.90;1.00;;;;;;5051315;28;20078;-79
2021/09/20 08:48:04;;;;;;;2.08;1.88;;;16.90;1.00;;;;;;5051037;28;20024;-80
2021/09/20 08:50:33;;;;;;;3.10;2.10;;;17.00;1.00;;;;;;5051677;28;20061;-79
2021/09/20 08:53:00;;;;;;;2.47;2.28;;;17.00;1.00;;;;;;5048916;28;20064;-79
2021/09/20 08:55:26;;;;;;;1.95;1.80;;;16.90;1.00;;;;;;5051245;28;20051;-79
2021/09/20 08:57:52;;;;;;;2.30;2.10;;;17.00;1.00;;;;;;5049890;28;20025;-79
2021/09/20 09:00:18;;;;;;;2.20;2.10;;;17.00;1.00;;;;;;5051019;28;20033;-79
2021/09/20 09:02:44;;;;;;;2.67;2.25;;;16.90;1.00;;;;;;5050696;28;20057;-79
2021/09/20 09:05:17;;;;;;;3.58;2.00;;;17.00;1.00;;;;;;5053532;28;20059;-80
2021/09/20 09:07:46;;;;;;;1.60;1.50;;;16.80;1.00;;;;;;5049707;28;20067;-79
2021/09/20 09:10:13;;;;;;;1.70;1.60;;;17.00;1.00;;;;;;5050886;28;20116;-79
2021/09/20 09:12:39;;;;;;;1.60;1.50;;;17.20;1.00;;;;;;5050935;28;20029;-79
2021/09/20 09:15:08;;;;;;;1.77;1.20;;;17.20;1.00;;;;;;5050839;28;20057;-78
2021/09/20 09:17:39;;;;;;;1.13;1.00;;;17.20;1.00;;;;;;5049948;28;20501;-79
2021/09/20 09:20:29;;;;;;;1.23;1.13;;;17.40;1.00;;;;;;5051561;28;20033;-79
2021/09/20 09:22:56;;;;;;;1.23;1.13;;;17.60;1.00;;;;;;5052455;28;20489;-79
2021/09/20 09:25:33;;;;;;;1.23;1.13;;;17.30;1.00;;;;;;5051003;28;20412;-79
2021/09/20 09:28:03;;;;;;;2.45;1.20;;;17.60;1.00;;;;;;5050750;28;20021;-79
2021/09/20 09:30:37;;;;;;;1.05;0.98;;;17.80;1.00;;;;;;5050014;28;20028;-79
2021/09/20 09:33:13;;;;;;;0.93;0.90;;;18.00;1.00;;;;;;5050687;28;20025;-79
2021/09/20 09:35:44;;;;;;;0.80;0.80;;;18.20;1.00;;;;;;5034073;28;20021;-80
2021/09/20 09:38:10;;;;;;;1.08;0.80;;;18.10;1.00;;;;;;5051789;28;20025;-80
2021/09/20 09:40:57;;;;;;;0.98;0.88;;;18.00;1.00;;;;;;5051308;28;20108;-79
2021/09/20 09:43:35;;;;;;;2.47;1.15;;;18.20;1.00;;;;;;5049962;28;20033;-79
2021/09/20 09:46:17;;;;;;;2.10;1.33;;;18.10;1.00;;;;;;5049593;28;20108;-78
2021/09/20 09:48:44;;;;;;;3.78;1.10;;;18.20;1.00;;;;;;5049880;28;20086;-78
2021/09/20 09:51:10;;;;;;;0.80;0.80;;;18.20;1.00;;;;;;5050282;28;20063;-79
2021/09/20 09:53:41;;;;;;;1.02;0.90;;;18.20;1.00;;;;;;5050324;28;20168;-79
2021/09/20 09:56:24;;;;;;;0.82;0.70;;;18.20;1.00;;;;;;5033660;28;20102;-79
2021/09/20 09:58:56;;;;;;;1.35;0.85;;;18.40;1.00;;;;;;5050822;28;20517;-80
2021/09/20 10:01:39;;;;;;;2.45;0.90;;;18.20;1.00;;;;;;5049444;28;20090;-81
2021/09/20 10:04:24;;;;;;;1.00;0.90;;;18.60;1.00;;;;;;5046596;28;20111;-81
2021/09/20 10:06:49;;;;;;;0.65;0.63;;;18.50;1.00;;;;;;5049608;28;20042;-81
2021/09/20 10:09:23;;;;;;;1.38;0.60;;;18.60;1.00;;;;;;5050933;28;20029;-78
2021/09/20 10:11:51;;;;;;;0.75;0.50;;;18.60;1.00;;;;;;5050334;28;20381;-79
2021/09/20 10:14:19;;;;;;;1.52;0.80;;;18.40;1.00;;;;;;5049483;28;20061;-78
2021/09/20 10:16:48;;;;;;;0.82;0.65;;;18.40;1.00;;;;;;5049922;28;20383;-79
2021/09/20 10:19:14;;;;;;;1.48;0.60;;;18.30;1.00;;;;;;5045298;28;20040;-78
2021/09/20 10:21:39;;;;;;;0.70;0.70;;;18.10;1.00;;;;;;5049672;28;20025;-79
2021/09/20 10:24:05;;;;;;;0.65;0.50;;;18.20;1.00;;;;;;5049034;28;20424;-78
2021/09/20 10:26:31;;;;;;;0.80;0.80;;;18.30;1.00;;;;;;5050316;28;20489;-79
2021/09/20 10:28:59;;;;;;;0.93;0.90;;;18.40;1.00;;;;;;5051354;28;20382;-78
2021/09/20 10:31:26;;;;;;;1.80;0.90;;;18.40;1.00;;;;;;5050137;28;20116;-85
2021/09/20 10:34:17;;;;;;;0.90;0.80;;;18.30;1.00;;;;;;5050754;28;20039;-83
2021/09/20 10:36:58;;;;;;;0.77;0.77;;;18.30;1.00;;;;;;5049627;28;20029;-84
2021/09/20 10:39:46;;;;;;;1.55;0.75;;;18.50;1.00;;;;;;5050511;28;20099;-83
2021/09/20 10:42:34;;;;;;;1.75;1.00;;;18.50;1.00;;;;;;5050006;28;20401;-84
2021/09/20 10:45:02;;;;;;;1.00;1.00;;;18.20;1.00;;;;;;5050159;28;20374;-84
2021/09/20 10:47:46;;;;;;;1.63;1.33;;;18.00;1.00;;;;;;5049042;28;20071;-85
2021/09/20 10:50:13;;;;;;;1.15;1.05;;;18.00;1.00;;;;;;5048427;28;20121;-84
2021/09/20 10:53:39;;;;;;;1.33;1.10;;;18.00;1.00;;;;;;5051647;28;20021;-80
2021/09/20 10:56:03;;;;;;;0.95;0.95;;;18.00;1.00;;;;;;5046725;28;20052;-84
2021/09/20 10:58:30;;;;;;;1.23;1.00;;;18.10;1.00;;;;;;5048918;28;20032;-85
2021/09/20 11:01:22;;;;;;;0.68;0.68;;;18.20;1.00;;;;;;5049819;28;20021;-85
2021/09/20 11:03:53;;;;;;;0.70;0.70;;;18.10;1.00;;;;;;5045005;28;20036;-84
2021/09/20 11:06:27;;;;;;;1.67;0.80;;;18.10;1.00;;;;;;5049430;28;20056;-83
2021/09/20 11:08:58;;;;;;;1.02;0.88;;;18.20;1.00;;;;;;5049973;28;20108;-81
2021/09/20 11:14:41;;;;;;;0.85;0.70;;;18.20;1.00;;;;;;5047518;28;20041;-82
2021/09/20 11:17:38;;;;;;;0.50;0.50;;;18.20;1.00;;;;;;5048211;28;20045;-78
2021/09/20 11:20:16;;;;;;;0.50;0.50;;;18.30;1.00;;;;;;5039033;28;20606;-81
2021/09/20 11:22:42;;;;;;;0.88;0.50;;;18.30;1.00;;;;;;5047989;28;20526;-81
2021/09/20 11:25:13;;;;;;;0.50;0.40;;;18.30;1.00;;;;;;5047735;28;20032;-80
2021/09/20 11:27:41;;;;;;;0.40;0.40;;;18.30;1.00;;;;;;5048730;28;20033;-79
2021/09/20 11:30:16;;;;;;;1.08;0.60;;;18.40;1.00;;;;;;5049054;28;20523;-80
2021/09/20 11:32:52;;;;;;;0.82;0.47;;;18.30;1.00;;;;;;5048140;28;20033;-79
2021/09/20 11:35:18;;;;;;;0.90;0.43;;;18.50;1.00;;;;;;5050147;28;20467;-82
2021/09/20 11:37:45;;;;;;;0.47;0.47;;;18.50;1.00;;;;;;5051265;28;20101;-79
2021/09/20 11:40:14;;;;;;;1.65;0.60;;;18.40;1.00;;;;;;5048984;28;20078;-79
2021/09/20 11:42:40;;;;;;;1.20;0.60;;;18.70;1.00;;;;;;5048722;28;20028;-79
2021/09/20 11:45:17;;;;;;;1.70;0.68;;;18.90;1.00;;;;;;5049652;28;20112;-80
2021/09/20 11:47:50;;;;;;;1.40;1.02;;;18.80;1.00;;;;;;5049584;28;20481;-80
2021/09/20 11:50:28;;;;;;;1.20;0.60;;;18.90;1.00;;;;;;5049154;28;20088;-79
2021/09/20 11:53:00;;;;;;;3.08;0.60;;;18.90;1.00;;;;;;5050316;28;20485;-80
2021/09/20 11:55:30;;;;;;;0.70;0.65;;;19.10;1.00;;;;;;5047444;28;19920;-80
2021/09/20 11:58:07;;;;;;;0.73;0.70;;;19.10;1.00;;;;;;5031208;28;20530;-80
2021/09/20 12:00:36;;;;;;;0.75;0.60;;;19.10;1.00;;;;;;5053614;28;20128;-79
2021/09/20 12:03:08;;;;;;;0.82;0.70;;;18.80;1.00;;;;;;5053134;28;20396;-80
2021/09/20 12:05:38;;;;;;;1.85;0.73;;;18.80;1.00;;;;;;5037604;28;20013;-79
2021/09/20 12:08:06;;;;;;;0.80;0.80;;;18.80;1.00;;;;;;5044711;28;20040;-80
2021/09/20 12:10:40;;;;;;;1.20;0.82;;;19.10;1.00;;;;;;5052250;28;20059;-80
2021/09/20 12:13:13;;;;;;;1.00;0.90;;;19.50;1.00;;;;;;5044548;28;20495;-80
2021/09/20 12:15:42;;;;;;;2.28;0.90;;;19.40;1.00;;;;;;5046192;28;20067;-80
2021/09/20 12:18:09;;;;;;;1.08;0.80;;;19.30;1.00;;;;;;5052631;28;20099;-80
2021/09/20 12:20:49;;;;;;;1.35;0.85;;;19.30;1.00;;;;;;5053175;28;20075;-80
2021/09/20 12:23:43;;;;;;;1.38;1.10;;;19.10;1.00;;;;;;5053465;28;20044;-81
2021/09/20 12:26:14;;;;;;;1.00;0.90;;;18.90;1.00;;;;;;5050519;28;20029;-80
2021/09/20 12:28:51;;;;;;;2.20;0.90;;;19.00;1.00;;;;;;5054449;28;20029;-80
2021/09/20 12:31:20;;;;;;;1.20;1.10;;;19.40;1.00;;;;;;5052363;28;20453;-80
2021/09/20 12:34:04;;;;;;;0.98;0.98;;;19.50;1.00;;;;;;5052259;28;20116;-80
2021/09/20 12:36:37;;;;;;;1.00;0.90;;;19.60;1.00;;;;;;5052730;28;20054;-80
2021/09/20 12:39:24;;;;;;;1.10;1.00;;;19.40;1.00;;;;;;5051913;28;20094;-80
2021/09/20 12:42:04;;;;;;;1.30;1.10;;;19.10;1.00;;;;;;5021743;28;20405;-80
2021/09/20 12:44:35;;;;;;;1.15;1.00;;;19.40;1.00;;;;;;5036499;28;20025;-80
2021/09/20 12:47:17;;;;;;;2.03;0.95;;;19.50;1.00;;;;;;5050940;28;20024;-80
2021/09/20 12:50:00;;;;;;;1.15;0.70;;;19.70;1.00;;;;;;5052558;28;20033;-80
2021/09/20 12:52:29;;;;;;;0.60;0.60;;;19.80;1.00;;;;;;5050501;28;20025;-80
2021/09/20 12:54:54;;;;;;;1.65;0.60;;;19.80;1.00;;;;;;5051652;28;20037;-80
2021/09/20 12:57:23;;;;;;;1.08;0.90;;;20.00;1.00;;;;;;5052424;28;20515;-80
2021/09/20 13:00:05;;;;;;;2.75;0.80;;;20.10;1.00;;;;;;5052057;28;20075;-80
2021/09/20 13:02:31;;;;;;;1.13;0.80;;;19.80;1.00;;;;;;5037080;28;20400;-81
2021/09/20 13:04:58;;;;;;;1.42;0.80;;;20.10;1.00;;;;;;5053939;28;20024;-80